Time;durP1;ratioP1;P1;durP2;ratioP2;P2;SDS_P1;SDS_P2;PMS_P1;PMS_P2;Temp;Humidity;BMP_temperature;BMP_pressure;BME280_temperature;BME280_humidity;BME280_pressure;Samples;Min_cycle;Max_cycle;Signal;HPM_P1;HPM_P2
2023/02/24 00:00:44;;;;;;;9.47;6.13;;;;;;;;;;5066883;28;20108;-70
2023/02/24 00:03:09;;;;;;;9.05;6.05;;;;;;;;;;5066272;28;20275;-70
2023/02/24 00:05:35;;;;;;;8.53;6.40;;;;;;;;;;5056056;28;20385;-72
2023/02/24 00:08:01;;;;;;;8.07;6.10;;;;;;;;;;5066836;28;20551;-71
2023/02/24 00:10:26;;;;;;;9.00;6.40;;;;;;;;;;5048433;28;20115;-65
2023/02/24 00:12:52;;;;;;;9.50;6.35;;;;;;;;;;5061892;28;20287;-72
2023/02/24 00:15:19;;;;;;;8.73;6.15;;;;;;;;;;5066261;28;20052;-72
2023/02/24 00:17:45;;;;;;;8.73;6.70;;;;;;;;;;5048513;28;20025;-71
2023/02/24 00:20:15;;;;;;;9.55;6.63;;;;;;;;;;5055455;28;20082;-69
2023/02/24 00:22:40;;;;;;;;;;;;;;;;;;5038708;28;20090;-69
2023/02/24 00:25:05;;;;;;;9.20;6.22;;;;;;;;;;5066444;28;19912;-66
2023/02/24 00:27:31;;;;;;;7.43;5.70;;;;;;;;;;5066923;28;20028;-67
2023/02/24 00:29:56;;;;;;;9.43;6.35;;;;;;;;;;5047937;28;20079;-69
2023/02/24 00:32:21;;;;;;;8.93;6.20;;;;;;;;;;5060618;28;20048;-73
2023/02/24 00:34:47;;;;;;;8.07;5.83;;;;;;;;;;5059594;28;21200;-68
2023/02/24 00:37:14;;;;;;;7.78;5.43;;;;;;;;;;5042628;28;20298;-65
2023/02/24 00:39:40;;;;;;;7.28;5.30;;;;;;;;;;5066295;28;20531;-66
2023/02/24 00:42:05;;;;;;;8.88;6.22;;;;;;;;;;5047927;28;20423;-71
2023/02/24 00:44:34;;;;;;;8.32;6.10;;;;;;;;;;5064941;28;20033;-67
2023/02/24 00:47:01;;;;;;;8.63;6.37;;;;;;;;;;5059944;28;20115;-72
2023/02/24 00:49:26;;;;;;;9.02;5.78;;;;;;;;;;5049432;28;20035;-71
2023/02/24 00:51:53;;;;;;;8.60;6.45;;;;;;;;;;5045450;28;20044;-72
2023/02/24 00:54:18;;;;;;;8.35;6.18;;;;;;;;;;5060804;28;20125;-63
2023/02/24 00:56:44;;;;;;;8.97;6.10;;;;;;;;;;5043003;28;20406;-68
2023/02/24 00:59:10;;;;;;;8.45;5.85;;;;;;;;;;5058250;28;20283;-65
2023/02/24 01:01:35;;;;;;;8.63;6.15;;;;;;;;;;5017268;28;20095;-71
2023/02/24 01:04:10;;;;;;;8.95;6.32;;;;;;;;;;5036642;28;20395;-72
2023/02/24 01:06:35;;;;;;;8.93;6.25;;;;;;;;;;5050003;28;20086;-73
2023/02/24 01:09:00;;;;;;;7.68;5.57;;;;;;;;;;5050862;28;20044;-69
2023/02/24 01:14:12;;;;;;;8.25;6.10;;;;;;;;;;5062396;28;20059;-70
2023/02/24 01:16:37;;;;;;;9.35;6.00;;;;;;;;;;5037240;28;20484;-69
2023/02/24 01:19:04;;;;;;;7.90;5.75;;;;;;;;;;5035202;28;20068;-72
2023/02/24 01:21:30;;;;;;;7.18;5.38;;;;;;;;;;5026769;28;20084;-67
2023/02/24 01:23:55;;;;;;;9.05;6.03;;;;;;;;;;5043826;28;20067;-70
2023/02/24 01:26:21;;;;;;;7.35;5.53;;;;;;;;;;5032915;28;20472;-70
2023/02/24 01:28:46;;;;;;;7.97;6.03;;;;;;;;;;5044177;28;20096;-69
2023/02/24 01:31:14;;;;;;;8.60;6.07;;;;;;;;;;5045896;28;20035;-72
2023/02/24 01:33:39;;;;;;;7.22;5.32;;;;;;;;;;5046390;28;20059;-70
2023/02/24 01:36:12;;;;;;;8.23;5.70;;;;;;;;;;5065236;28;20037;-72
2023/02/24 01:38:38;;;;;;;7.68;5.70;;;;;;;;;;5064547;28;20287;-69
2023/02/24 01:41:04;;;;;;;8.18;6.05;;;;;;;;;;5040034;28;20080;-69
2023/02/24 01:43:29;;;;;;;7.53;5.60;;;;;;;;;;5053440;28;20059;-71
2023/02/24 01:45:55;;;;;;;8.45;5.82;;;;;;;;;;5049823;28;20103;-72
2023/02/24 01:48:20;;;;;;;7.83;5.83;;;;;;;;;;5070011;28;20454;-71
2023/02/24 01:50:46;;;;;;;8.10;5.97;;;;;;;;;;5049417;28;20295;-67
2023/02/24 01:53:11;;;;;;;7.45;5.65;;;;;;;;;;5047462;28;20047;-73
2023/02/24 01:55:39;;;;;;;8.20;5.50;;;;;;;;;;5062705;28;20041;-74
2023/02/24 01:58:07;;;;;;;7.22;5.18;;;;;;;;;;5069285;28;20282;-71
2023/02/24 02:00:36;;;;;;;7.85;5.85;;;;;;;;;;5050872;28;20127;-72
2023/02/24 02:03:06;;;;;;;8.07;5.68;;;;;;;;;;5050786;28;20190;-68
2023/02/24 02:05:32;;;;;;;7.38;5.53;;;;;;;;;;5034540;28;20193;-64
2023/02/24 02:07:57;;;;;;;9.13;6.07;;;;;;;;;;5044012;28;20556;-61
2023/02/24 02:10:23;;;;;;;7.90;4.97;;;;;;;;;;5037710;28;20025;-66
2023/02/24 02:12:50;;;;;;;6.97;5.60;;;;;;;;;;5051393;28;20028;-69
2023/02/24 02:15:17;;;;;;;7.30;5.70;;;;;;;;;;5031652;28;20020;-72
2023/02/24 02:17:53;;;;;;;6.85;5.22;;;;;;;;;;5042518;28;20046;-68
2023/02/24 02:20:21;;;;;;;6.55;5.15;;;;;;;;;;5047757;28;20674;-67
2023/02/24 02:22:53;;;;;;;7.70;5.63;;;;;;;;;;5068334;28;20087;-68
2023/02/24 02:25:24;;;;;;;7.18;5.63;;;;;;;;;;5050358;28;20036;-68
2023/02/24 02:27:52;;;;;;;6.68;5.07;;;;;;;;;;5068856;28;20044;-66
2023/02/24 02:30:18;;;;;;;7.13;5.15;;;;;;;;;;5058135;28;20571;-63
2023/02/24 02:33:03;;;;;;;6.97;5.40;;;;;;;;;;5046605;28;20052;-66
2023/02/24 02:35:30;;;;;;;6.78;5.00;;;;;;;;;;5068743;28;20103;-65
2023/02/24 02:38:15;;;;;;;7.32;5.20;;;;;;;;;;5050827;28;20086;-71
2023/02/24 02:40:59;;;;;;;7.63;4.97;;;;;;;;;;5038457;28;20060;-71
2023/02/24 02:43:31;;;;;;;8.25;5.63;;;;;;;;;;5068449;28;20058;-73
2023/02/24 02:45:57;;;;;;;7.70;4.82;;;;;;;;;;5048061;28;20036;-73
2023/02/24 02:48:41;;;;;;;6.68;5.15;;;;;;;;;;5050655;28;20047;-71
2023/02/24 02:51:06;;;;;;;8.05;5.38;;;;;;;;;;5050606;28;20167;-68
2023/02/24 02:53:38;;;;;;;6.90;5.03;;;;;;;;;;5062881;28;20060;-71
2023/02/24 02:56:11;;;;;;;6.72;5.22;;;;;;;;;;5043441;28;20127;-66
2023/02/24 02:58:37;;;;;;;6.53;4.82;;;;;;;;;;5047262;28;20128;-67
2023/02/24 03:01:03;;;;;;;6.55;4.93;;;;;;;;;;5044080;28;20524;-70
2023/02/24 03:03:31;;;;;;;6.53;5.35;;;;;;;;;;5067854;28;20556;-70
2023/02/24 03:06:02;;;;;;;6.97;5.32;;;;;;;;;;5067332;28;20036;-63
2023/02/24 03:08:28;;;;;;;7.20;5.32;;;;;;;;;;5048324;28;20042;-70
2023/02/24 03:10:53;;;;;;;7.35;5.18;;;;;;;;;;5047308;28;20028;-67
2023/02/24 03:13:21;;;;;;;6.72;5.15;;;;;;;;;;5040987;28;20040;-65
2023/02/24 03:15:46;;;;;;;7.38;5.20;;;;;;;;;;5067854;28;20020;-67
2023/02/24 03:18:14;;;;;;;6.45;4.75;;;;;;;;;;5049732;28;20017;-67
2023/02/24 03:20:45;;;;;;;6.90;5.00;;;;;;;;;;5044943;28;20036;-69
2023/02/24 03:23:15;;;;;;;6.95;4.68;;;;;;;;;;5033180;28;20029;-70
2023/02/24 03:25:47;;;;;;;6.60;5.03;;;;;;;;;;5056411;28;20029;-66
2023/02/24 03:28:15;;;;;;;6.20;4.68;;;;;;;;;;5053650;28;20040;-66
2023/02/24 03:30:42;;;;;;;5.78;4.10;;;;;;;;;;5046539;28;20146;-69
2023/02/24 03:33:15;;;;;;;6.22;4.38;;;;;;;;;;5048821;28;20032;-71
2023/02/24 03:35:41;;;;;;;5.43;4.43;;;;;;;;;;5067906;28;20041;-67
2023/02/24 03:38:08;;;;;;;6.35;4.60;;;;;;;;;;5049484;28;20485;-69
2023/02/24 03:40:34;;;;;;;6.47;4.50;;;;;;;;;;5033888;28;20079;-67
2023/02/24 03:43:15;;;;;;;6.88;4.78;;;;;;;;;;5024912;28;20469;-71
2023/02/24 03:45:40;;;;;;;6.63;4.78;;;;;;;;;;5032632;28;20036;-70
2023/02/24 03:48:06;;;;;;;6.70;4.80;;;;;;;;;;5049350;28;20031;-69
2023/02/24 03:50:32;;;;;;;6.70;4.60;;;;;;;;;;5056782;28;20294;-70
2023/02/24 03:53:22;;;;;;;5.93;4.57;;;;;;;;;;5036622;28;20049;-69
2023/02/24 03:55:57;;;;;;;6.15;4.50;;;;;;;;;;5043086;28;20138;-72
2023/02/24 03:58:38;;;;;;;7.57;5.03;;;;;;;;;;5061417;28;20465;-67
2023/02/24 04:01:12;;;;;;;5.47;4.30;;;;;;;;;;5058859;28;20049;-67
2023/02/24 04:03:56;;;;;;;6.43;4.43;;;;;;;;;;5048789;28;20036;-67
2023/02/24 04:06:25;;;;;;;6.25;4.30;;;;;;;;;;5045051;28;20044;-68
2023/02/24 04:09:00;;;;;;;5.28;4.32;;;;;;;;;;5044460;28;20044;-72
2023/02/24 04:11:29;;;;;;;6.07;4.22;;;;;;;;;;5041623;28;20017;-73
2023/02/24 04:14:01;;;;;;;6.32;3.88;;;;;;;;;;5067539;28;20507;-70
2023/02/24 04:16:35;;;;;;;6.25;4.13;;;;;;;;;;5046623;28;20032;-62
2023/02/24 04:19:02;;;;;;;5.68;3.97;;;;;;;;;;5049254;28;20032;-71
2023/02/24 04:21:29;;;;;;;5.53;4.10;;;;;;;;;;5019999;28;20207;-68
2023/02/24 04:23:54;;;;;;;6.45;4.47;;;;;;;;;;5047630;28;20708;-72
2023/02/24 04:26:19;;;;;;;4.97;3.70;;;;;;;;;;5062225;28;20044;-68
2023/02/24 04:28:47;;;;;;;5.25;3.80;;;;;;;;;;5067145;28;20032;-68
2023/02/24 04:31:17;;;;;;;4.85;3.75;;;;;;;;;;5059251;28;20047;-71
2023/02/24 04:33:42;;;;;;;5.47;4.28;;;;;;;;;;5032558;28;20035;-70
2023/02/24 04:36:08;;;;;;;6.18;3.80;;;;;;;;;;5048575;28;20413;-70
2023/02/24 04:38:34;;;;;;;5.03;3.83;;;;;;;;;;5055867;28;20069;-68
2023/02/24 04:40:59;;;;;;;5.75;3.90;;;;;;;;;;5043602;28;20181;-70
2023/02/24 04:43:24;;;;;;;5.97;3.70;;;;;;;;;;5060234;28;20032;-67
2023/02/24 04:45:50;;;;;;;5.37;3.80;;;;;;;;;;5042917;28;20033;-65
2023/02/24 04:48:15;;;;;;;5.28;3.80;;;;;;;;;;5030239;28;20283;-69
2023/02/24 04:50:41;;;;;;;6.03;3.88;;;;;;;;;;5065554;28;20041;-73
2023/02/24 04:53:08;;;;;;;4.68;3.72;;;;;;;;;;5065008;28;20105;-72
2023/02/24 04:55:39;;;;;;;5.20;3.75;;;;;;;;;;5030170;28;20547;-66
2023/02/24 04:58:04;;;;;;;4.68;3.20;;;;;;;;;;5057870;28;20032;-66
2023/02/24 05:00:34;;;;;;;4.50;3.45;;;;;;;;;;5039541;28;20056;-64
2023/02/24 05:03:00;;;;;;;;;;;;;;;;;;5060685;28;20051;-67
2023/02/24 05:05:28;;;;;;;4.43;3.20;;;;;;;;;;5065962;28;19939;-64
2023/02/24 05:07:54;;;;;;;4.88;3.60;;;;;;;;;;5045711;28;20645;-67
2023/02/24 05:10:21;;;;;;;4.50;3.38;;;;;;;;;;5032589;28;20081;-71
2023/02/24 05:12:46;;;;;;;4.93;3.70;;;;;;;;;;5050301;28;20040;-69
2023/02/24 05:15:11;;;;;;;4.43;3.33;;;;;;;;;;5052287;28;20040;-72
2023/02/24 05:17:37;;;;;;;4.88;3.65;;;;;;;;;;5059748;28;20040;-68
2023/02/24 05:22:50;;;;;;;4.50;3.20;;;;;;;;;;5055251;28;20043;-75
2023/02/24 05:25:16;;;;;;;4.97;3.60;;;;;;;;;;5060631;28;20045;-70
2023/02/24 05:27:41;;;;;;;4.70;3.38;;;;;;;;;;5047832;28;20038;-76
2023/02/24 05:30:08;;;;;;;4.30;3.10;;;;;;;;;;5023041;28;20024;-61
2023/02/24 05:32:35;;;;;;;4.43;3.30;;;;;;;;;;4998800;28;20070;-68
2023/02/24 05:35:00;;;;;;;5.22;3.25;;;;;;;;;;5032400;28;20028;-76
2023/02/24 05:37:25;;;;;;;4.30;2.90;;;;;;;;;;5068629;28;20114;-65
2023/02/24 05:39:54;;;;;;;4.70;3.40;;;;;;;;;;5050062;28;20051;-66
2023/02/24 05:42:19;;;;;;;4.55;3.10;;;;;;;;;;5030352;28;20159;-71
2023/02/24 05:44:45;;;;;;;4.43;3.30;;;;;;;;;;5044971;28;20071;-74
2023/02/24 05:47:10;;;;;;;4.57;3.15;;;;;;;;;;5064955;28;20283;-71
2023/02/24 05:49:37;;;;;;;4.13;3.25;;;;;;;;;;5046170;28;20663;-67
2023/02/24 05:52:08;;;;;;;4.43;3.40;;;;;;;;;;5046880;28;20067;-64
2023/02/24 05:54:35;;;;;;;7.55;2.95;;;;;;;;;;5053590;28;20208;-66
2023/02/24 05:57:05;;;;;;;4.85;3.42;;;;;;;;;;5060560;28;20186;-71
2023/02/24 05:59:32;;;;;;;4.13;3.20;;;;;;;;;;5053575;28;20464;-71
2023/02/24 06:02:05;;;;;;;4.72;3.25;;;;;;;;;;5057426;28;20444;-75
2023/02/24 06:04:44;;;;;;;4.45;2.80;;;;;;;;;;5060821;28;20032;-74
2023/02/24 06:07:23;;;;;;;5.13;3.13;;;;;;;;;;5037144;28;20036;-75
2023/02/24 06:09:52;;;;;;;4.60;3.00;;;;;;;;;;5052261;28;20213;-71
2023/02/24 06:12:18;;;;;;;5.05;2.70;;;;;;;;;;5050308;28;20028;-63
2023/02/24 06:14:43;;;;;;;3.72;2.75;;;;;;;;;;5037724;28;20032;-67
2023/02/24 06:17:09;;;;;;;5.38;2.80;;;;;;;;;;5039481;28;20120;-72
2023/02/24 06:19:34;;;;;;;5.50;3.10;;;;;;;;;;5039752;28;20502;-73
2023/02/24 06:22:03;;;;;;;6.65;3.20;;;;;;;;;;5050208;28;20028;-70
2023/02/24 06:24:29;;;;;;;3.78;2.83;;;;;;;;;;5036663;28;20052;-73
2023/02/24 06:27:08;;;;;;;4.28;3.28;;;;;;;;;;5051757;28;20056;-70
2023/02/24 06:29:35;;;;;;;3.80;2.53;;;;;;;;;;5061708;28;20075;-62
2023/02/24 06:32:07;;;;;;;5.93;3.15;;;;;;;;;;5059990;28;20050;-73
2023/02/24 06:34:32;;;;;;;7.75;3.08;;;;;;;;;;5064014;28;20408;-69
2023/02/24 06:36:57;;;;;;;5.47;2.80;;;;;;;;;;5044612;28;20048;-66
2023/02/24 06:39:23;;;;;;;3.83;2.90;;;;;;;;;;5058093;28;20056;-60
2023/02/24 06:41:48;;;;;;;5.67;2.97;;;;;;;;;;5061466;28;20117;-63
2023/02/24 06:44:13;;;;;;;6.25;2.90;;;;;;;;;;5063137;28;20389;-68
2023/02/24 06:46:40;;;;;;;5.13;2.70;;;;;;;;;;5062904;28;20071;-64
2023/02/24 06:49:06;;;;;;;6.00;2.90;;;;;;;;;;5050312;28;20282;-73
2023/02/24 06:51:32;;;;;;;4.47;2.60;;;;;;;;;;5067786;28;20123;-61
2023/02/24 06:53:58;;;;;;;5.05;2.70;;;;;;;;;;5067328;28;20179;-67
2023/02/24 06:56:24;;;;;;;3.80;2.58;;;;;;;;;;5046456;28;20585;-65
2023/02/24 06:58:50;;;;;;;3.50;2.60;;;;;;;;;;5051882;28;20039;-69
2023/02/24 07:01:16;;;;;;;6.15;3.10;;;;;;;;;;5031918;28;20055;-68
2023/02/24 07:03:46;;;;;;;4.43;2.55;;;;;;;;;;5067169;28;20056;-70
2023/02/24 07:06:22;;;;;;;4.82;2.80;;;;;;;;;;5065702;28;20040;-69
2023/02/24 07:08:48;;;;;;;5.00;2.85;;;;;;;;;;5049526;28;20508;-72
2023/02/24 07:11:16;;;;;;;4.07;2.80;;;;;;;;;;5045197;28;20039;-69
2023/02/24 07:13:41;;;;;;;3.97;2.75;;;;;;;;;;5064116;28;20110;-69
2023/02/24 07:16:06;;;;;;;3.45;2.55;;;;;;;;;;5040800;28;20729;-65
2023/02/24 07:18:34;;;;;;;3.83;2.33;;;;;;;;;;5045787;28;20036;-67
2023/02/24 07:21:03;;;;;;;4.18;2.60;;;;;;;;;;5047010;28;20056;-68
2023/02/24 07:23:29;;;;;;;2.90;2.30;;;;;;;;;;5039750;28;20028;-69
2023/02/24 07:25:57;;;;;;;3.50;2.23;;;;;;;;;;5052502;28;20043;-68
2023/02/24 07:28:24;;;;;;;4.35;2.53;;;;;;;;;;5060259;28;20283;-69
2023/02/24 07:30:51;;;;;;;4.22;2.53;;;;;;;;;;5065574;28;20052;-72
2023/02/24 07:33:18;;;;;;;3.33;2.40;;;;;;;;;;5060060;28;20131;-68
2023/02/24 07:35:49;;;;;;;4.80;2.85;;;;;;;;;;5063133;28;20037;-63
2023/02/24 07:38:16;;;;;;;4.80;2.47;;;;;;;;;;5059729;28;20135;-65
2023/02/24 07:40:41;;;;;;;3.35;2.47;;;;;;;;;;5064537;28;20049;-63
2023/02/24 07:43:07;;;;;;;3.63;2.53;;;;;;;;;;5043114;28;20113;-65
2023/02/24 07:45:32;;;;;;;4.30;2.28;;;;;;;;;;5064713;28;20334;-65
2023/02/24 07:47:57;;;;;;;4.13;2.40;;;;;;;;;;5061739;28;20041;-67
2023/02/24 07:50:23;;;;;;;4.40;2.53;;;;;;;;;;5044435;28;20373;-66
2023/02/24 07:52:48;;;;;;;3.47;2.50;;;;;;;;;;5035396;28;20197;-64
2023/02/24 07:55:16;;;;;;;3.30;2.15;;;;;;;;;;5040218;28;20036;-64
2023/02/24 07:57:45;;;;;;;4.05;2.70;;;;;;;;;;5041852;28;20041;-64
2023/02/24 08:00:26;;;;;;;3.38;2.22;;;;;;;;;;5044765;28;20048;-69
2023/02/24 08:02:53;;;;;;;4.85;2.47;;;;;;;;;;5044313;28;20480;-70
2023/02/24 08:05:20;;;;;;;3.88;2.40;;;;;;;;;;5045521;28;20029;-67
2023/02/24 08:07:48;;;;;;;3.55;2.50;;;;;;;;;;5042625;28;20029;-69
2023/02/24 08:10:23;;;;;;;4.63;2.38;;;;;;;;;;5044835;28;20037;-65
2023/02/24 08:12:51;;;;;;;3.80;2.60;;;;;;;;;;5043926;28;20028;-66
2023/02/24 08:15:16;;;;;;;4.07;2.10;;;;;;;;;;5043698;28;20047;-62
2023/02/24 08:17:42;;;;;;;3.20;2.15;;;;;;;;;;5042188;28;20045;-65
2023/02/24 08:22:42;;;;;;;3.60;2.20;;;;;;;;;;5043779;28;20106;-66
2023/02/24 08:25:08;;;;;;;3.65;2.00;;;;;;;;;;5042000;28;20099;-67
2023/02/24 08:27:37;;;;;;;4.03;2.60;;;;;;;;;;5043161;28;20025;-69
2023/02/24 08:30:03;;;;;;;3.55;2.65;;;;;;;;;;5044870;28;20016;-64
2023/02/24 08:32:32;;;;;;;3.80;2.67;;;;;;;;;;5038270;28;20013;-68
2023/02/24 08:35:01;;;;;;;4.57;2.50;;;;;;;;;;5044240;28;20036;-66
2023/02/24 08:37:27;;;;;;;2.92;2.10;;;;;;;;;;5042935;28;20048;-62
2023/02/24 08:39:55;;;;;;;4.07;2.40;;;;;;;;;;5044447;28;20028;-67
2023/02/24 08:42:29;;;;;;;4.13;2.40;;;;;;;;;;5043860;28;20044;-63
2023/02/24 08:44:56;;;;;;;4.07;2.40;;;;;;;;;;5039868;28;20068;-67
2023/02/24 08:47:29;;;;;;;3.17;2.20;;;;;;;;;;5041585;28;20064;-63
2023/02/24 08:49:55;;;;;;;3.30;2.47;;;;;;;;;;5042371;28;20052;-64
2023/02/24 08:52:20;;;;;;;3.10;1.95;;;;;;;;;;5064762;28;20386;-67
2023/02/24 08:54:46;;;;;;;3.50;2.40;;;;;;;;;;5044195;28;20335;-65
2023/02/24 08:57:14;;;;;;;3.70;2.35;;;;;;;;;;5044737;28;20035;-66
2023/02/24 08:59:48;;;;;;;3.55;2.47;;;;;;;;;;5046102;28;20499;-68
2023/02/24 09:02:17;;;;;;;4.88;2.30;;;;;;;;;;5045264;28;20036;-64
2023/02/24 09:04:46;;;;;;;3.43;2.47;;;;;;;;;;5062981;28;20036;-68
2023/02/24 09:07:14;;;;;;;3.47;2.60;;;;;;;;;;5044478;28;20818;-69
2023/02/24 09:09:41;;;;;;;2.85;1.92;;;;;;;;;;5031202;28;20076;-61
2023/02/24 09:12:06;;;;;;;3.47;2.20;;;;;;;;;;5056444;28;20071;-62
2023/02/24 09:14:36;;;;;;;3.35;2.03;;;;;;;;;;5051872;28;20075;-63
2023/02/24 09:17:02;;;;;;;3.55;2.20;;;;;;;;;;5057341;28;20037;-66
2023/02/24 09:20:14;;;;;;;4.40;2.42;;;;;;;;;;5058549;28;20554;-66
2023/02/24 09:22:39;;;;;;;3.45;2.20;;;;;;;;;;5060455;28;20512;-71
2023/02/24 09:25:17;;;;;;;3.55;2.35;;;;;;;;;;5054835;28;20135;-67
2023/02/24 09:27:43;;;;;;;3.10;2.30;;;;;;;;;;5060576;28;20119;-65
2023/02/24 09:30:34;;;;;;;4.28;2.40;;;;;;;;;;5061068;28;20051;-63
2023/02/24 09:33:00;;;;;;;3.28;2.30;;;;;;;;;;5050190;28;20048;-63
2023/02/24 09:35:29;;;;;;;2.85;1.98;;;;;;;;;;5063495;28;20113;-70
2023/02/24 09:37:55;;;;;;;3.20;2.50;;;;;;;;;;5042698;28;20050;-67
2023/02/24 09:42:46;;;;;;;3.20;2.03;;;;;;;;;;5063159;28;20036;-61
2023/02/24 09:45:32;;;;;;;3.25;2.10;;;;;;;;;;5062758;28;20267;-64
2023/02/24 09:48:00;;;;;;;3.38;2.20;;;;;;;;;;5060678;28;20114;-66
2023/02/24 09:53:16;;;;;;;4.18;2.70;;;;;;;;;;5056750;28;20055;-65
2023/02/24 09:55:59;;;;;;;3.63;2.22;;;;;;;;;;5059842;28;20055;-63
2023/02/24 09:58:25;;;;;;;3.85;2.35;;;;;;;;;;5051203;28;20055;-67
2023/02/24 10:00:58;;;;;;;3.42;2.00;;;;;;;;;;5062591;28;20504;-66
2023/02/24 10:03:46;;;;;;;3.28;1.92;;;;;;;;;;5030943;28;20041;-68
2023/02/24 10:06:19;;;;;;;3.65;2.42;;;;;;;;;;5069271;28;20048;-69
2023/02/24 10:08:49;;;;;;;3.25;2.03;;;;;;;;;;5066155;28;20072;-70
2023/02/24 10:11:14;;;;;;;3.50;2.10;;;;;;;;;;5032756;28;20068;-66
2023/02/24 10:13:51;;;;;;;3.50;2.33;;;;;;;;;;5066845;28;20546;-65
2023/02/24 10:16:22;;;;;;;3.92;2.38;;;;;;;;;;5049581;28;20738;-67
2023/02/24 10:19:13;;;;;;;3.08;2.25;;;;;;;;;;5061269;28;20040;-65
2023/02/24 10:21:48;;;;;;;3.30;2.15;;;;;;;;;;5047347;28;20119;-65
2023/02/24 10:24:28;;;;;;;3.47;2.00;;;;;;;;;;5067970;28;20596;-62
2023/02/24 10:26:53;;;;;;;3.78;2.20;;;;;;;;;;5048237;28;20102;-66
2023/02/24 10:29:28;;;;;;;3.95;2.47;;;;;;;;;;5056256;28;20456;-66
2023/02/24 10:31:59;;;;;;;3.65;2.30;;;;;;;;;;5049802;28;20029;-60
2023/02/24 10:34:30;;;;;;;2.80;1.92;;;;;;;;;;5067888;28;20056;-66
2023/02/24 10:37:00;;;;;;;3.42;2.13;;;;;;;;;;5063410;28;20040;-69
2023/02/24 10:39:26;;;;;;;2.92;1.90;;;;;;;;;;5065561;28;20101;-70
2023/02/24 10:42:14;;;;;;;3.17;2.15;;;;;;;;;;5063972;28;20060;-62
2023/02/24 10:44:50;;;;;;;3.28;1.90;;;;;;;;;;5053518;28;20044;-67
2023/02/24 10:47:16;;;;;;;2.80;2.10;;;;;;;;;;5060921;28;20120;-67
2023/02/24 10:49:58;;;;;;;3.05;2.10;;;;;;;;;;5063264;28;20041;-65
2023/02/24 10:52:49;;;;;;;4.18;2.33;;;;;;;;;;5044163;28;20055;-65
2023/02/24 10:55:27;;;;;;;4.22;2.50;;;;;;;;;;5067162;28;20033;-64
2023/02/24 10:58:05;;;;;;;3.33;2.20;;;;;;;;;;5049605;28;20036;-66
2023/02/24 11:08:53;;;;;;;2.47;2.10;;;;;;;;;;5048714;28;20453;-65
2023/02/24 11:11:24;;;;;;;3.58;2.15;;;;;;;;;;5038216;28;20293;-62
2023/02/24 11:19:38;;;;;;;3.20;1.80;;;;;;;;;;5059777;28;20127;-68
2023/02/24 11:22:03;;;;;;;3.63;2.05;;;;;;;;;;5066674;28;20315;-64
2023/02/24 11:24:29;;;;;;;2.90;1.93;;;;;;;;;;5067552;28;20103;-65
2023/02/24 11:26:54;;;;;;;3.45;2.13;;;;;;;;;;5064145;28;20478;-67
2023/02/24 11:29:29;;;;;;;3.90;2.10;;;;;;;;;;5061499;28;20052;-68
2023/02/24 11:32:15;;;;;;;3.03;2.20;;;;;;;;;;5043161;28;20300;-64
2023/02/24 11:34:59;;;;;;;2.97;1.95;;;;;;;;;;5063905;28;20056;-68
2023/02/24 11:37:28;;;;;;;2.95;2.10;;;;;;;;;;5064746;28;20237;-71
2023/02/24 11:40:21;;;;;;;2.97;2.08;;;;;;;;;;5065598;28;20036;-62
2023/02/24 11:42:50;;;;;;;2.95;1.98;;;;;;;;;;5046772;28;20115;-64
2023/02/24 11:45:21;;;;;;;3.50;2.40;;;;;;;;;;5063693;28;20041;-70
2023/02/24 11:47:59;;;;;;;3.83;2.40;;;;;;;;;;5027676;28;20049;-68
2023/02/24 11:50:38;;;;;;;3.60;2.35;;;;;;;;;;5062496;28;20056;-68
2023/02/24 11:53:05;;;;;;;3.42;2.00;;;;;;;;;;5057130;28;20089;-64
2023/02/24 11:55:34;;;;;;;3.20;2.13;;;;;;;;;;5040955;28;20042;-66
2023/02/24 11:58:00;;;;;;;;;;;;;;;;;;5045913;28;20074;-64
2023/02/24 12:00:26;;;;;;;3.50;2.10;;;;;;;;;;5059663;28;19928;-65
2023/02/24 12:02:52;;;;;;;3.25;2.30;;;;;;;;;;5063518;28;20052;-66
2023/02/24 12:05:17;;;;;;;3.27;2.00;;;;;;;;;;5064109;28;20105;-65
2023/02/24 12:07:44;;;;;;;3.60;2.45;;;;;;;;;;5045614;28;20059;-67
2023/02/24 12:10:09;;;;;;;3.15;2.13;;;;;;;;;;5065554;28;20029;-65
2023/02/24 12:12:53;;;;;;;3.55;2.40;;;;;;;;;;5044444;28;20706;-69
2023/02/24 12:15:33;;;;;;;6.78;4.50;;;;;;;;;;5060204;28;20528;-66
2023/02/24 12:18:30;;;;;;;8.95;3.85;;;;;;;;;;5041635;28;20045;-72
2023/02/24 12:21:04;;;;;;;5.75;4.18;;;;;;;;;;5030750;28;20060;-71
2023/02/24 12:23:29;;;;;;;7.35;4.32;;;;;;;;;;5048193;28;20121;-71
2023/02/24 12:26:27;;;;;;;8.60;5.30;;;;;;;;;;5057209;28;20424;-70
2023/02/24 12:29:01;;;;;;;7.45;4.15;;;;;;;;;;5020953;28;20314;-64
2023/02/24 12:31:33;;;;;;;6.05;4.68;;;;;;;;;;5065981;28;20813;-69
2023/02/24 12:34:07;;;;;;;6.88;4.72;;;;;;;;;;5066060;28;20040;-66
2023/02/24 12:36:55;;;;;;;7.75;4.97;;;;;;;;;;5042201;28;20032;-62
2023/02/24 12:39:28;;;;;;;9.05;5.20;;;;;;;;;;5028168;28;20253;-70
2023/02/24 12:41:59;;;;;;;10.70;5.45;;;;;;;;;;5048034;28;20161;-67
2023/02/24 12:44:24;;;;;;;7.45;5.85;;;;;;;;;;5018752;28;20035;-72
2023/02/24 12:46:56;;;;;;;10.40;5.20;;;;;;;;;;5060955;28;20053;-74
2023/02/24 12:49:21;;;;;;;8.05;5.13;;;;;;;;;;5030749;28;20036;-66
2023/02/24 12:52:06;;;;;;;10.07;5.90;;;;;;;;;;5061813;28;20120;-65
2023/02/24 12:54:50;;;;;;;9.57;5.85;;;;;;;;;;5040911;28;20035;-65
2023/02/24 12:57:30;;;;;;;9.65;5.93;;;;;;;;;;5056050;28;20047;-70
2023/02/24 12:59:56;;;;;;;8.30;5.82;;;;;;;;;;5042259;28;20037;-68
2023/02/24 13:02:35;;;;;;;8.20;6.03;;;;;;;;;;5045021;28;20790;-66
2023/02/24 13:05:00;;;;;;;7.97;5.85;;;;;;;;;;5064193;28;20810;-69
2023/02/24 13:07:32;;;;;;;10.07;6.27;;;;;;;;;;5062673;28;20071;-70
2023/02/24 13:10:06;;;;;;;9.43;6.28;;;;;;;;;;5064009;28;20378;-65
2023/02/24 13:12:31;;;;;;;9.23;6.78;;;;;;;;;;5065105;28;20047;-72
2023/02/24 13:14:57;;;;;;;9.53;6.70;;;;;;;;;;5059965;28;20064;-72
2023/02/24 13:17:24;;;;;;;9.10;6.33;;;;;;;;;;5047098;28;20056;-64
2023/02/24 13:19:51;;;;;;;8.00;5.93;;;;;;;;;;5034157;28;20361;-63
2023/02/24 13:22:23;;;;;;;9.57;6.38;;;;;;;;;;5037680;28;20080;-67
2023/02/24 13:24:56;;;;;;;11.65;6.97;;;;;;;;;;5062311;28;20583;-63
2023/02/24 13:27:22;;;;;;;8.68;6.57;;;;;;;;;;5059214;28;20028;-70
2023/02/24 13:29:51;;;;;;;10.43;7.35;;;;;;;;;;5055134;28;20024;-71
2023/02/24 13:32:30;;;;;;;11.13;6.38;;;;;;;;;;5040744;28;20041;-72
2023/02/24 13:34:56;;;;;;;8.70;6.82;;;;;;;;;;5060081;28;20044;-72
2023/02/24 13:37:28;;;;;;;11.38;7.40;;;;;;;;;;5049779;28;20037;-68
2023/02/24 13:39:53;;;;;;;8.88;6.35;;;;;;;;;;5056488;28;20044;-71
2023/02/24 13:42:18;;;;;;;8.70;6.23;;;;;;;;;;5059362;28;20044;-68
2023/02/24 13:44:47;;;;;;;11.70;7.43;;;;;;;;;;5057052;28;20283;-68
2023/02/24 13:47:42;;;;;;;9.90;6.73;;;;;;;;;;5065551;28;20029;-68
2023/02/24 13:50:18;;;;;;;10.02;7.10;;;;;;;;;;5055059;28;20056;-70
2023/02/24 13:52:46;;;;;;;9.82;6.40;;;;;;;;;;5049172;28;20128;-70
2023/02/24 13:55:21;;;;;;;11.82;7.05;;;;;;;;;;5048452;28;20071;-64
2023/02/24 13:57:52;;;;;;;10.02;7.47;;;;;;;;;;5051246;28;20374;-65
2023/02/24 14:00:26;;;;;;;11.55;6.97;;;;;;;;;;5052606;28;20063;-66
2023/02/24 14:02:52;;;;;;;11.40;7.43;;;;;;;;;;5052665;28;20076;-63
2023/02/24 14:05:20;;;;;;;10.65;7.10;;;;;;;;;;5050644;28;20090;-65
2023/02/24 14:07:46;;;;;;;10.75;7.30;;;;;;;;;;5034208;28;20037;-71
2023/02/24 14:10:17;;;;;;;17.48;7.85;;;;;;;;;;5037270;28;20064;-67
2023/02/24 14:12:43;;;;;;;14.55;7.53;;;;;;;;;;5032666;28;20037;-69
2023/02/24 14:15:10;;;;;;;19.50;8.57;;;;;;;;;;5050231;28;20038;-69
2023/02/24 14:17:36;;;;;;;17.63;8.50;;;;;;;;;;5031718;28;20823;-72
2023/02/24 14:20:14;;;;;;;15.25;8.13;;;;;;;;;;5051572;28;20902;-64
2023/02/24 14:22:51;;;;;;;16.77;8.27;;;;;;;;;;5050167;28;20064;-69
2023/02/24 14:25:17;;;;;;;17.88;8.45;;;;;;;;;;5036352;28;20059;-68
2023/02/24 14:27:43;;;;;;;16.27;8.40;;;;;;;;;;5050648;28;20110;-68
2023/02/24 14:30:29;;;;;;;14.85;8.98;;;;;;;;;;5051249;28;20317;-70
2023/02/24 14:32:55;;;;;;;14.35;8.38;;;;;;;;;;5044884;28;20036;-65
2023/02/24 14:35:26;;;;;;;13.88;8.50;;;;;;;;;;5034818;28;20029;-71
2023/02/24 14:37:51;;;;;;;16.00;9.98;;;;;;;;;;5032455;28;20549;-68
2023/02/24 14:40:20;;;;;;;17.85;9.93;;;;;;;;;;5063495;23;20782;-65
2023/02/24 14:42:46;;;;;;;15.70;9.13;;;;;;;;;;4992728;28;20049;-65
2023/02/24 14:45:15;;;;;;;16.52;10.00;;;;;;;;;;5008263;28;20109;-65
2023/02/24 14:47:42;;;;;;;15.60;10.85;;;;;;;;;;4993332;28;20096;-64
2023/02/24 14:50:13;;;;;;;16.83;11.25;;;;;;;;;;5005321;28;20075;-64
2023/02/24 14:52:38;;;;;;;14.35;10.45;;;;;;;;;;5004348;28;20129;-65
2023/02/24 14:55:09;;;;;;;14.90;10.60;;;;;;;;;;5027214;28;20112;-64
2023/02/24 14:57:42;;;;;;;15.23;10.55;;;;;;;;;;5025554;28;20246;-64
2023/02/24 15:00:11;;;;;;;16.40;10.35;;;;;;;;;;5021127;28;20046;-65
2023/02/24 15:02:38;;;;;;;16.00;10.10;;;;;;;;;;5024821;28;20037;-65
2023/02/24 15:05:05;;;;;;;15.05;10.85;;;;;;;;;;5020548;28;20822;-65
2023/02/24 15:07:32;;;;;;;15.90;10.52;;;;;;;;;;5025259;23;20062;-61
2023/02/24 15:09:58;;;;;;;14.90;10.20;;;;;;;;;;5004589;28;20509;-62
2023/02/24 15:12:26;;;;;;;14.23;10.02;;;;;;;;;;5016364;28;20037;-63
2023/02/24 15:14:52;;;;;;;14.45;10.15;;;;;;;;;;5014887;28;20069;-63
2023/02/24 15:17:18;;;;;;;13.95;10.02;;;;;;;;;;5014700;28;20087;-62
2023/02/24 15:19:53;;;;;;;14.75;10.20;;;;;;;;;;4993903;28;20506;-62
2023/02/24 15:22:32;;;;;;;16.48;10.73;;;;;;;;;;5017217;28;20563;-62